Time;durP1;ratioP1;P1;durP2;ratioP2;P2;SDS_P1;SDS_P2;PMS_P1;PMS_P2;Temp;Humidity;BMP_temperature;BMP_pressure;BME280_temperature;BME280_humidity;BME280_pressure;Samples;Min_cycle;Max_cycle;Signal;HPM_P1;HPM_P2
2021/12/02 00:01:02;;;;;;;;;;;;;;;5.02;91.08;94411.84;5105157;28;19948;-80
2021/12/02 00:03:30;;;;;;;;;;;;;;;4.98;91.57;94416.75;5102604;28;19931;-80
2021/12/02 00:05:57;;;;;;;;;;;;;;;5.08;90.79;94415.28;5103466;28;19924;-80
2021/12/02 00:08:23;;;;;;;;;;;;;;;5.04;90.73;94419.41;5106326;28;19924;-79
2021/12/02 00:10:48;;;;;;;;;;;;;;;4.96;92.24;94429.25;5104494;28;19934;-80
2021/12/02 00:13:22;;;;;;;;;;;;;;;5.03;92.94;94447.28;5104917;28;19971;-80
2021/12/02 00:15:57;;;;;;;;;;;;;;;4.87;94.12;94450.75;5104432;28;19924;-80
2021/12/02 00:21:06;;;;;;;;;;;;;;;4.53;94.26;94456.06;5103066;28;19927;-80
2021/12/02 00:23:34;;;;;;;;;;;;;;;4.24;94.29;94455.38;5102267;28;19925;-80
2021/12/02 00:26:01;;;;;;;;;;;;;;;4.23;96.80;94453.81;5084181;28;19928;-80
2021/12/02 00:28:29;;;;;;;;;;;;;;;4.01;98.02;94460.78;5103691;28;19928;-80
2021/12/02 00:30:55;;;;;;;;;;;;;;;3.96;99.55;94458.88;5101601;28;19924;-79
2021/12/02 00:33:24;;;;;;;;;;;;;;;3.85;100.00;94464.97;5105458;28;19935;-80
2021/12/02 00:35:51;;;;;;;;;;;;;;;3.81;100.00;94463.84;5104522;28;19928;-80
2021/12/02 00:38:17;;;;;;;;;;;;;;;3.75;100.00;94475.19;5094013;28;19925;-82
2021/12/02 00:40:45;;;;;;;;;;;;;;;3.72;100.00;94476.47;5085781;28;19924;-79
2021/12/02 00:43:11;;;;;;;;;;;;;;;3.71;100.00;94474.88;5067603;28;19924;-79
2021/12/02 00:45:38;;;;;;;;;;;;;;;3.68;100.00;94460.53;5085413;28;19924;-79
2021/12/02 00:48:06;;;;;;;;;;;;;;;3.67;100.00;94471.19;5085410;28;19925;-80
2021/12/02 00:50:32;;;;;;;;;;;;;;;3.69;100.00;94463.91;5093150;28;19999;-78
2021/12/02 00:53:00;;;;;;;;;;;;;;;3.76;100.00;94467.16;5081006;28;20089;-79
2021/12/02 00:55:26;;;;;;;;;;;;;;;3.71;100.00;94466.28;5078335;28;19924;-81
2021/12/02 00:57:52;;;;;;;;;;;;;;;3.67;100.00;94468.56;5092640;28;19973;-80
2021/12/02 01:00:17;;;;;;;;;;;;;;;3.74;100.00;94469.22;5090019;28;19932;-79
2021/12/02 01:02:43;;;;;;;;;;;;;;;3.65;100.00;94475.81;5086356;28;19978;-79
2021/12/02 01:05:08;;;;;;;;;;;;;;;3.60;100.00;94467.91;5088216;28;19931;-79
2021/12/02 01:07:34;;;;;;;;;;;;;;;3.64;100.00;94476.84;5088533;28;19932;-79
2021/12/02 01:10:01;;;;;;;;;;;;;;;3.61;100.00;94479.91;5068551;28;20415;-80
2021/12/02 01:12:26;;;;;;;;;;;;;;;3.57;100.00;94476.22;5086300;28;19924;-80
2021/12/02 01:14:52;;;;;;;;;;;;;;;3.61;100.00;94485.13;5089965;28;19935;-81
2021/12/02 01:17:17;;;;;;;;;;;;;;;3.65;100.00;94478.41;5092220;28;19925;-81
2021/12/02 01:19:45;;;;;;;;;;;;;;;3.64;100.00;94476.84;5093942;28;19909;-80
2021/12/02 01:22:12;;;;;;;;;;;;;;;3.53;100.00;94482.88;5097716;28;19960;-81
2021/12/02 01:24:41;;;;;;;;;;;;;;;3.56;100.00;94485.03;5098014;28;20398;-81
2021/12/02 01:27:09;;;;;;;;;;;;;;;3.53;100.00;94483.69;5088369;28;20343;-80
2021/12/02 01:29:37;;;;;;;;;;;;;;;3.56;99.93;94472.03;5108706;28;20023;-79
2021/12/02 01:32:06;;;;;;;;;;;;;;;3.60;100.00;94473.13;5089475;28;20288;-80
2021/12/02 01:34:32;;;;;;;;;;;;;;;3.61;100.00;94482.53;5092354;28;19931;-79
2021/12/02 01:36:58;;;;;;;;;;;;;;;3.56;100.00;94479.84;5099721;28;19912;-79
2021/12/02 01:39:24;;;;;;;;;;;;;;;3.60;100.00;94481.72;5099351;28;19954;-79
2021/12/02 01:41:52;;;;;;;;;;;;;;;3.55;99.48;94484.25;5101910;28;19924;-79
2021/12/02 01:44:20;;;;;;;;;;;;;;;3.53;100.00;94480.28;5115222;28;19974;-77
2021/12/02 01:46:46;;;;;;;;;;;;;;;3.63;100.00;94475.25;5107241;28;19924;-83
2021/12/02 01:49:12;;;;;;;;;;;;;;;3.66;99.79;94486.00;5117679;28;19912;-83
2021/12/02 01:51:38;;;;;;;;;;;;;;;3.51;100.00;94474.53;5099717;28;19947;-84
2021/12/02 01:54:07;;;;;;;;;;;;;;;3.62;100.00;94471.88;5117889;28;19925;-83
2021/12/02 01:56:37;;;;;;;;;;;;;;;3.54;100.00;94468.88;5115459;28;19935;-82
2021/12/02 01:59:10;;;;;;;;;;;;;;;3.48;100.00;94469.81;5098016;28;20032;-82
2021/12/02 02:01:40;;;;;;;;;;;;;;;3.45;100.00;94460.66;5104530;28;19935;-80
2021/12/02 02:04:06;;;;;;;;;;;;;;;3.41;100.00;94465.53;5107333;28;19958;-78
2021/12/02 02:06:36;;;;;;;;;;;;;;;3.29;100.00;94459.63;5098664;28;19924;-78
2021/12/02 02:09:02;;;;;;;;;;;;;;;3.41;100.00;94452.53;5108512;28;20450;-79
2021/12/02 02:11:31;;;;;;;;;;;;;;;3.35;100.00;94456.09;5106279;28;19995;-80
2021/12/02 02:13:58;;;;;;;;;;;;;;;3.34;100.00;94462.31;5086715;28;20249;-79
2021/12/02 02:16:26;;;;;;;;;;;;;;;3.28;100.00;94455.44;5067507;28;19924;-81
2021/12/02 02:19:00;;;;;;;;;;;;;;;3.20;100.00;94453.22;5084574;28;19975;-79
2021/12/02 02:21:27;;;;;;;;;;;;;;;3.20;100.00;94455.00;5070397;28;19977;-79
2021/12/02 02:24:00;;;;;;;;;;;;;;;3.07;100.00;94445.69;5092975;28;19934;-79
2021/12/02 02:26:28;;;;;;;;;;;;;;;3.26;100.00;94447.06;5109291;28;19973;-79
2021/12/02 02:28:54;;;;;;;;;;;;;;;3.17;100.00;94448.47;5107851;28;19924;-79
2021/12/02 02:31:19;;;;;;;;;;;;;;;3.13;100.00;94452.56;5088769;28;19931;-79
2021/12/02 02:33:49;;;;;;;;;;;;;;;3.14;100.00;94454.13;5108058;28;19999;-79
2021/12/02 02:36:15;;;;;;;;;;;;;;;3.07;100.00;94448.31;5088889;28;19983;-80
2021/12/02 02:38:42;;;;;;;;;;;;;;;2.99;100.00;94443.47;5089607;28;19928;-79
2021/12/02 02:41:10;;;;;;;;;;;;;;;2.99;100.00;94456.44;5106412;28;20314;-79
2021/12/02 02:43:37;;;;;;;;;;;;;;;3.00;100.00;94452.81;5106014;28;19924;-80
2021/12/02 02:46:03;;;;;;;;;;;;;;;2.96;100.00;94451.69;5103066;28;19923;-79
2021/12/02 02:48:29;;;;;;;;;;;;;;;2.89;100.00;94444.06;5083198;28;20310;-80
2021/12/02 02:50:58;;;;;;;;;;;;;;;2.88;100.00;94445.06;5129081;22;19931;-79
2021/12/02 02:53:26;;;;;;;;;;;;;;;2.85;100.00;94451.53;5138714;27;20390;-79
2021/12/02 02:56:15;;;;;;;;;;;;;;;2.79;100.00;94442.03;5138294;27;19963;-80
2021/12/02 03:06:35;;;;;;;;;;;;;;;2.61;100.00;94455.19;5110039;28;19953;-79
2021/12/02 03:09:24;;;;;;;;;;;;;;;2.53;100.00;94442.56;5097582;28;19954;-80
2021/12/02 03:11:54;;;;;;;;;;;;;;;2.59;100.00;94452.03;5114655;28;19928;-78
2021/12/02 03:14:47;;;;;;;;;;;;;;;2.51;100.00;94454.97;5120045;28;19924;-80
2021/12/02 03:17:12;;;;;;;;;;;;;;;2.51;100.00;94460.16;5119844;28;19923;-79
2021/12/02 03:19:39;;;;;;;;;;;;;;;2.47;100.00;94465.00;5119657;27;20371;-83
2021/12/02 03:22:07;;;;;;;;;;;;;;;2.47;100.00;94464.22;5120977;28;19931;-82
2021/12/02 03:24:32;;;;;;;;;;;;;;;2.48;100.00;94463.22;5111310;28;20387;-79
2021/12/02 03:26:59;;;;;;;;;;;;;;;2.47;100.00;94470.19;5121949;27;19954;-80
2021/12/02 03:29:27;;;;;;;;;;;;;;;2.46;100.00;94463.44;5116180;28;19998;-80
2021/12/02 03:32:00;;;;;;;;;;;;;;;2.51;100.00;94468.75;5112720;28;19924;-79
2021/12/02 03:34:25;;;;;;;;;;;;;;;2.64;100.00;94462.53;5100635;28;19952;-78
2021/12/02 03:36:51;;;;;;;;;;;;;;;2.54;100.00;94464.91;5096921;28;19943;-79
2021/12/02 03:39:16;;;;;;;;;;;;;;;2.60;100.00;94469.97;5098184;28;19931;-79
2021/12/02 03:41:42;;;;;;;;;;;;;;;2.63;100.00;94464.31;5102525;28;20264;-80
2021/12/02 03:44:09;;;;;;;;;;;;;;;2.68;100.00;94453.25;5122720;28;19924;-78
2021/12/02 03:46:35;;;;;;;;;;;;;;;2.79;100.00;94456.84;5119867;28;19927;-79
2021/12/02 03:49:00;;;;;;;;;;;;;;;2.86;100.00;94453.09;5134052;28;19950;-79
2021/12/02 03:51:26;;;;;;;;;;;;;;;2.94;100.00;94464.13;5130828;28;19923;-79
2021/12/02 03:53:52;;;;;;;;;;;;;;;2.92;100.00;94461.00;5123556;28;19931;-80
2021/12/02 03:56:17;;;;;;;;;;;;;;;3.03;99.19;94450.56;5121916;28;20145;-80
2021/12/02 03:58:44;;;;;;;;;;;;;;;2.86;100.00;94442.72;5121537;28;19931;-80
2021/12/02 04:01:11;;;;;;;;;;;;;;;2.81;100.00;94445.22;5127919;28;19958;-81
2021/12/02 04:03:37;;;;;;;;;;;;;;;2.74;100.00;94441.16;5120972;28;19924;-80
2021/12/02 04:06:06;;;;;;;;;;;;;;;2.82;100.00;94456.38;5121232;28;19956;-80
2021/12/02 04:08:40;;;;;;;;;;;;;;;2.69;100.00;94454.03;5122511;28;20383;-80
2021/12/02 04:13:51;;;;;;;;;;;;;;;2.64;100.00;94454.75;5122363;28;19924;-80
2021/12/02 04:16:20;;;;;;;;;;;;;;;2.65;100.00;94455.53;5120936;28;19924;-79
2021/12/02 04:18:48;;;;;;;;;;;;;;;2.54;100.00;94457.91;5112469;28;19966;-80
2021/12/02 04:21:13;;;;;;;;;;;;;;;2.49;100.00;94454.44;5101035;28;19928;-79
2021/12/02 04:23:39;;;;;;;;;;;;;;;2.50;100.00;94448.22;5101079;28;20022;-80
2021/12/02 04:26:04;;;;;;;;;;;;;;;2.58;100.00;94455.63;5105267;28;19991;-78
2021/12/02 04:28:30;;;;;;;;;;;;;;;2.75;100.00;94446.13;5106203;28;20011;-80
2021/12/02 04:30:58;;;;;;;;;;;;;;;2.70;100.00;94433.06;5106205;28;19931;-82
2021/12/02 04:33:24;;;;;;;;;;;;;;;2.70;100.00;94447.84;5104302;28;19924;-82
2021/12/02 04:35:52;;;;;;;;;;;;;;;2.57;100.00;94448.88;5103651;28;19932;-81
2021/12/02 04:38:18;;;;;;;;;;;;;;;2.47;100.00;94459.81;5102558;28;19931;-81
2021/12/02 04:40:45;;;;;;;;;;;;;;;2.41;100.00;94455.53;5100618;28;19924;-81
2021/12/02 04:43:11;;;;;;;;;;;;;;;2.39;100.00;94467.19;5119337;28;19939;-80
2021/12/02 04:45:36;;;;;;;;;;;;;;;2.34;100.00;94460.06;5115908;28;19924;-81
2021/12/02 04:48:02;;;;;;;;;;;;;;;2.35;100.00;94462.44;5118122;28;20017;-78
2021/12/02 04:50:29;;;;;;;;;;;;;;;2.30;100.00;94461.53;5135298;28;19912;-77
2021/12/02 04:52:54;;;;;;;;;;;;;;;2.28;100.00;94456.59;5117556;28;20041;-78
2021/12/02 04:55:23;;;;;;;;;;;;;;;2.24;100.00;94450.25;5113252;28;19924;-81
2021/12/02 04:57:48;;;;;;;;;;;;;;;2.21;100.00;94455.91;5113511;28;19924;-81
2021/12/02 05:00:17;;;;;;;;;;;;;;;2.19;100.00;94457.16;5113651;28;19935;-81
2021/12/02 05:02:42;;;;;;;;;;;;;;;2.14;100.00;94457.03;5107292;28;19924;-81
2021/12/02 05:05:08;;;;;;;;;;;;;;;2.06;100.00;94458.16;5122379;28;19973;-80
2021/12/02 05:07:35;;;;;;;;;;;;;;;2.06;100.00;94463.34;5123991;28;19924;-80
2021/12/02 05:10:01;;;;;;;;;;;;;;;2.06;100.00;94465.94;5123846;28;19934;-81
2021/12/02 05:12:26;;;;;;;;;;;;;;;2.10;100.00;94469.69;5126911;28;20010;-82
2021/12/02 05:14:52;;;;;;;;;;;;;;;2.06;100.00;94458.16;5126206;28;20437;-82
2021/12/02 05:17:17;;;;;;;;;;;;;;;2.06;100.00;94458.97;5125998;28;19935;-82
2021/12/02 05:19:43;;;;;;;;;;;;;;;2.04;100.00;94458.38;5127190;28;19924;-81
2021/12/02 05:22:08;;;;;;;;;;;;;;;2.05;100.00;94454.00;5125932;28;19923;-79
2021/12/02 05:24:35;;;;;;;;;;;;;;;2.04;100.00;94455.00;5135291;28;19976;-81
2021/12/02 05:27:00;;;;;;;;;;;;;;;2.06;100.00;94460.75;5125167;28;19988;-81
2021/12/02 05:29:26;;;;;;;;;;;;;;;2.11;100.00;94455.69;5128605;27;19924;-79
2021/12/02 05:31:51;;;;;;;;;;;;;;;2.22;100.00;94467.09;5109323;28;19924;-79
2021/12/02 05:34:19;;;;;;;;;;;;;;;2.15;100.00;94456.00;5104753;28;19929;-81
2021/12/02 05:36:44;;;;;;;;;;;;;;;2.07;100.00;94459.75;5104377;28;19924;-79
2021/12/02 05:39:11;;;;;;;;;;;;;;;1.98;100.00;94461.09;5115162;28;19922;-83
2021/12/02 05:41:38;;;;;;;;;;;;;;;1.98;100.00;94463.69;5109483;28;19930;-80
2021/12/02 05:44:03;;;;;;;;;;;;;;;1.89;100.00;94472.81;5102606;28;19928;-80
2021/12/02 05:46:29;;;;;;;;;;;;;;;1.88;100.00;94472.00;5106733;28;19924;-83
2021/12/02 05:48:56;;;;;;;;;;;;;;;1.93;100.00;94473.94;5114842;28;19923;-79
2021/12/02 05:51:22;;;;;;;;;;;;;;;1.98;100.00;94468.88;5111921;28;19978;-81
2021/12/02 05:53:48;;;;;;;;;;;;;;;2.03;100.00;94484.53;5113048;28;19924;-81
2021/12/02 05:56:13;;;;;;;;;;;;;;;2.11;100.00;94476.44;5105883;28;19924;-79
2021/12/02 05:58:40;;;;;;;;;;;;;;;2.20;100.00;94469.88;5113459;28;19935;-80
2021/12/02 06:01:07;;;;;;;;;;;;;;;2.26;100.00;94469.00;5111850;28;19927;-81
2021/12/02 06:03:37;;;;;;;;;;;;;;;2.22;100.00;94467.09;5107565;28;19924;-79
2021/12/02 06:06:02;;;;;;;;;;;;;;;2.10;100.00;94464.50;5105502;28;19924;-81
2021/12/02 06:08:30;;;;;;;;;;;;;;;2.22;100.00;94473.06;5118514;28;19908;-80
2021/12/02 06:10:55;;;;;;;;;;;;;;;2.17;100.00;94459.97;5116653;28;19971;-78
2021/12/02 06:13:21;;;;;;;;;;;;;;;2.06;100.00;94465.94;5127120;28;20376;-80
2021/12/02 06:15:48;;;;;;;;;;;;;;;1.95;100.00;94469.31;5128443;28;20290;-80
2021/12/02 06:18:13;;;;;;;;;;;;;;;1.99;100.00;94468.66;5123881;28;19924;-81
2021/12/02 06:20:39;;;;;;;;;;;;;;;2.10;100.00;94472.28;5119204;28;19924;-81
2021/12/02 06:23:04;;;;;;;;;;;;;;;2.18;100.00;94464.13;5119660;28;19962;-80
2021/12/02 06:27:56;;;;;;;;;;;;;;;2.17;100.00;94465.16;5120878;28;19923;-80
2021/12/02 06:30:22;;;;;;;;;;;;;;;2.24;100.00;94460.63;5121050;28;19924;-80
2021/12/02 06:32:49;;;;;;;;;;;;;;;2.32;100.00;94449.94;5120243;28;19924;-78
2021/12/02 06:35:15;;;;;;;;;;;;;;;2.33;100.00;94453.31;5119830;28;19923;-79
2021/12/02 06:37:41;;;;;;;;;;;;;;;2.36;100.00;94460.63;5119463;28;19945;-80
2021/12/02 06:40:07;;;;;;;;;;;;;;;2.25;100.00;94451.84;5128738;28;19928;-80
2021/12/02 06:42:33;;;;;;;;;;;;;;;2.24;100.00;94452.06;5134950;28;19924;-79
2021/12/02 06:44:58;;;;;;;;;;;;;;;2.20;100.00;94458.72;5126474;28;19930;-81
2021/12/02 06:47:29;;;;;;;;;;;;;;;2.17;100.00;94457.38;5120034;28;20391;-80
2021/12/02 06:49:56;;;;;;;;;;;;;;;2.15;100.00;94454.22;5120312;28;19930;-80
2021/12/02 06:52:23;;;;;;;;;;;;;;;2.17;100.00;94449.59;5124889;28;19914;-81
2021/12/02 06:54:49;;;;;;;;;;;;;;;2.07;100.00;94452.75;5137531;27;19911;-80
2021/12/02 06:57:16;;;;;;;;;;;;;;;2.09;100.00;94442.94;5137285;28;19983;-80
2021/12/02 06:59:41;;;;;;;;;;;;;;;2.11;100.00;94447.91;5136314;28;19935;-80
2021/12/02 07:02:07;;;;;;;;;;;;;;;1.97;100.00;94449.94;5131624;28;20007;-80
2021/12/02 07:04:32;;;;;;;;;;;;;;;1.83;100.00;94448.59;5123677;28;19928;-79
2021/12/02 07:06:59;;;;;;;;;;;;;;;1.89;100.00;94452.09;5122503;28;19933;-80
2021/12/02 07:09:27;;;;;;;;;;;;;;;1.87;100.00;94446.31;5122548;28;19977;-80
2021/12/02 07:11:52;;;;;;;;;;;;;;;1.84;100.00;94450.16;5121520;28;19924;-79
2021/12/02 07:14:20;;;;;;;;;;;;;;;1.89;100.00;94446.91;5120249;28;19982;-80
2021/12/02 07:16:46;;;;;;;;;;;;;;;1.96;100.00;94447.56;5124355;28;20245;-80
2021/12/02 07:19:14;;;;;;;;;;;;;;;1.97;100.00;94443.94;5119355;28;19931;-79
2021/12/02 07:21:40;;;;;;;;;;;;;;;1.99;100.00;94455.69;5118725;28;20003;-79
2021/12/02 07:24:10;;;;;;;;;;;;;;;2.11;100.00;94455.69;5120915;28;19942;-80
2021/12/02 07:26:40;;;;;;;;;;;;;;;2.14;100.00;94452.63;5121961;28;19987;-82
2021/12/02 07:29:05;;;;;;;;;;;;;;;2.18;100.00;94461.53;5120238;28;19927;-82
2021/12/02 07:31:31;;;;;;;;;;;;;;;2.11;100.00;94463.47;5119671;28;20390;-81
2021/12/02 07:33:59;;;;;;;;;;;;;;;2.12;100.00;94470.25;5122227;28;19923;-80
2021/12/02 07:36:24;;;;;;;;;;;;;;;2.14;100.00;94470.78;5121801;28;19924;-81
2021/12/02 07:38:50;;;;;;;;;;;;;;;2.12;100.00;94467.63;5121617;28;19943;-81
2021/12/02 07:41:17;;;;;;;;;;;;;;;2.13;100.00;94466.63;5123061;28;19927;-80
2021/12/02 07:43:45;;;;;;;;;;;;;;;2.21;100.00;94471.47;5119528;28;20022;-80
2021/12/02 07:46:10;;;;;;;;;;;;;;;2.19;100.00;94472.72;5119588;28;19924;-81
2021/12/02 07:48:36;;;;;;;;;;;;;;;2.19;100.00;94470.91;5122105;28;19953;-79
2021/12/02 07:51:06;;;;;;;;;;;;;;;2.18;100.00;94466.75;5125143;28;20347;-80
2021/12/02 07:53:31;;;;;;;;;;;;;;;2.21;100.00;94465.50;5120488;28;19924;-81
2021/12/02 07:56:03;;;;;;;;;;;;;;;2.19;100.00;94457.94;5120121;28;19923;-80
2021/12/02 07:58:30;;;;;;;;;;;;;;;2.15;100.00;94456.78;5119684;28;19951;-81
2021/12/02 08:00:57;;;;;;;;;;;;;;;2.22;100.00;94467.09;5136884;28;19934;-80
2021/12/02 08:03:22;;;;;;;;;;;;;;;2.21;100.00;94468.88;5138143;28;19912;-82
2021/12/02 08:05:48;;;;;;;;;;;;;;;2.27;100.00;94469.78;5138094;28;19919;-81
2021/12/02 08:08:16;;;;;;;;;;;;;;;2.30;100.00;94464.91;5138329;28;19937;-81
2021/12/02 08:10:42;;;;;;;;;;;;;;;2.48;100.00;94474.41;5138453;28;19923;-81
2021/12/02 08:13:07;;;;;;;;;;;;;;;2.48;100.00;94469.22;5138434;28;19912;-81
2021/12/02 08:15:34;;;;;;;;;;;;;;;2.72;100.00;94464.75;5126750;28;19928;-81
2021/12/02 08:17:59;;;;;;;;;;;;;;;2.72;100.00;94467.34;5121879;28;19950;-81
2021/12/02 08:20:26;;;;;;;;;;;;;;;2.99;99.88;94472.03;5118896;28;20395;-80
2021/12/02 08:22:52;;;;;;;;;;;;;;;3.06;99.50;94477.88;5124444;28;19987;-80
2021/12/02 08:25:18;;;;;;;;;;;;;;;3.21;99.18;94477.38;5122324;28;19958;-79
2021/12/02 08:27:43;;;;;;;;;;;;;;;3.21;98.86;94470.38;5127964;28;19930;-80
2021/12/02 08:30:10;;;;;;;;;;;;;;;3.19;98.38;94476.81;5125610;28;19987;-80
2021/12/02 08:32:41;;;;;;;;;;;;;;;3.21;98.49;94472.97;5128621;28;20003;-80
2021/12/02 08:35:06;;;;;;;;;;;;;;;3.15;97.95;94476.50;5130991;28;19927;-80
2021/12/02 08:37:35;;;;;;;;;;;;;;;3.12;97.41;94472.56;5120417;28;20288;-80
2021/12/02 08:40:03;;;;;;;;;;;;;;;3.07;98.30;94484.66;5121881;28;19959;-80
2021/12/02 08:42:31;;;;;;;;;;;;;;;3.10;98.21;94484.97;5122072;28;19924;-80
2021/12/02 08:44:57;;;;;;;;;;;;;;;3.11;98.04;94496.16;5121094;28;19927;-80
2021/12/02 08:47:23;;;;;;;;;;;;;;;3.29;97.71;94490.00;5118731;28;19930;-80
2021/12/02 08:49:54;;;;;;;;;;;;;;;3.26;97.82;94488.66;5122394;28;20014;-80
2021/12/02 08:52:20;;;;;;;;;;;;;;;3.35;97.02;94492.47;5112583;22;19996;-77
2021/12/02 08:54:45;;;;;;;;;;;;;;;3.37;96.93;94494.81;5074555;28;19967;-76
2021/12/02 08:57:11;;;;;;;;;;;;;;;3.40;96.18;94486.56;5075570;28;19924;-77
2021/12/02 08:59:37;;;;;;;;;;;;;;;3.48;96.03;94488.00;5079578;28;19931;-77
2021/12/02 09:02:02;;;;;;;;;;;;;;;3.58;95.43;94480.38;5075775;28;19925;-77
2021/12/02 09:04:28;;;;;;;;;;;;;;;3.50;95.52;94491.13;5077110;28;19956;-77
2021/12/02 09:06:54;;;;;;;;;;;;;;;3.58;95.68;94491.56;5074167;28;20415;-76
2021/12/02 09:09:25;;;;;;;;;;;;;;;3.69;95.12;94492.53;5074844;28;19924;-76
2021/12/02 09:11:54;;;;;;;;;;;;;;;3.80;95.43;94489.06;5080346;28;19935;-78
2021/12/02 09:14:22;;;;;;;;;;;;;;;3.77;95.02;94497.34;5082424;28;19929;-77
2021/12/02 09:16:49;;;;;;;;;;;;;;;3.89;94.78;94497.28;5079089;28;19931;-77
2021/12/02 09:19:15;;;;;;;;;;;;;;;3.86;94.59;94498.53;5079430;28;19924;-77
2021/12/02 09:21:40;;;;;;;;;;;;;;;3.88;94.46;94499.09;5080040;28;19931;-77
2021/12/02 09:24:07;;;;;;;;;;;;;;;3.77;94.67;94489.56;5090162;28;19932;-76
2021/12/02 09:26:35;;;;;;;;;;;;;;;3.81;94.91;94490.63;5090186;28;19947;-77
2021/12/02 09:29:00;;;;;;;;;;;;;;;3.80;95.30;94491.66;5081451;28;20308;-76
2021/12/02 09:31:26;;;;;;;;;;;;;;;3.74;95.89;94490.00;5079881;28;19924;-78
2021/12/02 09:33:51;;;;;;;;;;;;;;;3.72;95.52;94483.47;5079014;28;19925;-78
2021/12/02 09:36:17;;;;;;;;;;;;;;;3.77;95.03;94478.38;5076889;28;19977;-78
2021/12/02 09:38:43;;;;;;;;;;;;;;;3.89;95.19;94469.47;5078716;28;19934;-77
2021/12/02 09:41:10;;;;;;;;;;;;;;;4.01;94.56;94471.97;5078933;28;19964;-78
2021/12/02 09:43:37;;;;;;;;;;;;;;;4.07;95.42;94475.44;5077961;28;19931;-77
2021/12/02 09:46:03;;;;;;;;;;;;;;;4.13;94.48;94471.88;5087389;28;19987;-76
2021/12/02 09:48:33;;;;;;;;;;;;;;;4.24;94.85;94468.41;5095766;28;20317;-78
2021/12/02 09:53:38;;;;;;;;;;;;;;;4.21;93.26;94468.91;5078658;28;19932;-77
2021/12/02 09:56:14;;;;;;;;;;;;;;;4.27;92.74;94467.94;5076985;28;20006;-78
2021/12/02 09:58:41;;;;;;;;;;;;;;;4.32;92.47;94475.81;5077466;28;20059;-78
2021/12/02 10:01:08;;;;;;;;;;;;;;;4.38;91.22;94463.66;5075739;28;19925;-78
2021/12/02 10:03:39;;;;;;;;;;;;;;;4.40;91.46;94462.38;5076984;28;19943;-78
2021/12/02 10:06:09;;;;;;;;;;;;;;;4.44;90.03;94463.50;5082511;28;19956;-77
2021/12/02 10:08:38;;;;;;;;;;;;;;;4.65;87.85;94468.97;5082072;28;19947;-78
2021/12/02 10:11:10;;;;;;;;;;;;;;;4.98;88.95;94465.47;5078478;28;20422;-78
2021/12/02 10:14:19;;;;;;;;;;;;;;;5.09;87.42;94455.94;5078394;28;19967;-77
2021/12/02 10:21:28;;;;;;;;;;;;;;;5.20;83.99;94458.41;5077309;28;19924;-78
2021/12/02 10:23:53;;;;;;;;;;;;;;;5.02;84.84;94457.97;5076834;28;20024;-78
2021/12/02 10:26:19;;;;;;;;;;;;;;;4.93;84.16;94450.56;5077547;28;19952;-78
2021/12/02 10:28:47;;;;;;;;;;;;;;;4.95;84.44;94448.50;5076526;28;19929;-78
2021/12/02 10:31:17;;;;;;;;;;;;;;;4.96;84.58;94450.09;5077938;28;19925;-78
2021/12/02 10:33:50;;;;;;;;;;;;;;;5.16;83.42;94451.31;5077877;28;19925;-77
2021/12/02 10:36:22;;;;;;;;;;;;;;;5.07;83.86;94439.78;5078523;28;19924;-77
2021/12/02 10:38:49;;;;;;;;;;;;;;;5.07;82.47;94431.97;5075658;28;20391;-77
2021/12/02 10:41:17;;;;;;;;;;;;;;;5.28;83.16;94436.34;5076756;28;19963;-77
2021/12/02 10:44:03;;;;;;;;;;;;;;;5.44;81.55;94435.47;5077458;28;19970;-77
2021/12/02 10:46:29;;;;;;;;;;;;;;;5.58;79.84;94435.06;5070677;28;19966;-78
2021/12/02 10:48:58;;;;;;;;;;;;;;;5.76;77.90;94437.31;5078541;28;19939;-77
2021/12/02 10:51:35;;;;;;;;;;;;;;;5.99;79.63;94436.22;5076616;28;19940;-78
2021/12/02 10:54:07;;;;;;;;;;;;;;;6.13;79.39;94433.94;5077083;28;19936;-78
2021/12/02 10:56:33;;;;;;;;;;;;;;;6.23;77.24;94434.00;5077170;28;20026;-77
2021/12/02 10:59:21;;;;;;;;;;;;;;;6.23;77.84;94428.78;5077181;28;19924;-77
2021/12/02 11:01:49;;;;;;;;;;;;;;;6.20;77.15;94421.47;5078401;28;19925;-78
2021/12/02 11:04:16;;;;;;;;;;;;;;;6.32;76.93;94424.69;5076714;28;19932;-78
2021/12/02 11:06:42;;;;;;;;;;;;;;;6.05;77.82;94428.16;5084501;28;19935;-78
2021/12/02 11:09:22;;;;;;;;;;;;;;;5.98;77.83;94417.16;5093295;28;19959;-77
2021/12/02 11:12:08;;;;;;;;;;;;;;;6.02;78.42;94420.81;5080981;28;19928;-79
2021/12/02 11:14:36;;;;;;;;;;;;;;;6.10;77.82;94421.41;5078556;28;19935;-77
2021/12/02 11:17:09;;;;;;;;;;;;;;;6.23;76.64;94420.97;5075286;28;19935;-78
2021/12/02 11:19:35;;;;;;;;;;;;;;;6.42;78.01;94416.91;5076299;28;19936;-77
2021/12/02 11:22:07;;;;;;;;;;;;;;;6.36;77.58;94407.47;5077441;28;19929;-77
2021/12/02 11:24:33;;;;;;;;;;;;;;;6.02;78.15;94410.38;5076353;28;19931;-77
2021/12/02 11:27:09;;;;;;;;;;;;;;;6.03;77.24;94411.97;5077438;28;20403;-78
2021/12/02 11:29:59;;;;;;;;;;;;;;;6.12;77.73;94406.28;5087383;28;19930;-77
2021/12/02 11:32:32;;;;;;;;;;;;;;;5.88;77.51;94403.22;5078862;28;19932;-78
2021/12/02 11:35:00;;;;;;;;;;;;;;;5.81;79.29;94406.03;5077345;28;19924;-77
2021/12/02 11:37:26;;;;;;;;;;;;;;;5.86;78.79;94410.50;5077016;28;19970;-77
2021/12/02 11:39:52;;;;;;;;;;;;;;;5.87;78.24;94407.66;5078818;28;19925;-76
2021/12/02 11:42:21;;;;;;;;;;;;;;;5.66;78.95;94405.91;5076811;28;20019;-77
2021/12/02 11:44:52;;;;;;;;;;;;;;;5.65;78.54;94399.91;5076136;28;19924;-75
2021/12/02 11:47:20;;;;;;;;;;;;;;;5.73;78.35;94394.22;5076407;28;19932;-78
2021/12/02 11:49:45;;;;;;;;;;;;;;;5.65;78.40;94394.72;5078440;28;19924;-77
2021/12/02 11:52:15;;;;;;;;;;;;;;;5.76;79.76;94390.34;5074447;28;19924;-76
2021/12/02 11:54:42;;;;;;;;;;;;;;;5.46;83.24;94402.09;5072691;28;20261;-76
2021/12/02 11:57:08;;;;;;;;;;;;;;;5.07;84.85;94408.50;5072724;28;19928;-77
2021/12/02 11:59:33;;;;;;;;;;;;;;;4.79;87.96;94410.28;5078274;28;19962;-77
2021/12/02 12:01:59;;;;;;;;;;;;;;;4.50;89.85;94416.69;5082141;28;19924;-78
2021/12/02 12:04:25;;;;;;;;;;;;;;;4.31;90.82;94409.19;5086035;28;19924;-77
2021/12/02 12:06:53;;;;;;;;;;;;;;;4.16;92.47;94419.38;5086313;28;19924;-77
2021/12/02 12:09:25;;;;;;;;;;;;;;;4.17;94.00;94405.34;5080322;28;20327;-77
2021/12/02 12:11:51;;;;;;;;;;;;;;;4.21;93.86;94428.03;5074913;28;19925;-77
2021/12/02 12:14:19;;;;;;;;;;;;;;;4.06;92.20;94429.63;5078033;28;19925;-78
2021/12/02 12:16:46;;;;;;;;;;;;;;;3.87;94.25;94437.66;5077381;28;19925;-78
2021/12/02 12:19:18;;;;;;;;;;;;;;;3.69;94.88;94449.09;5079280;28;19924;-78
2021/12/02 12:21:45;;;;;;;;;;;;;;;3.53;95.65;94449.09;5079010;28;19947;-78
2021/12/02 12:24:14;;;;;;;;;;;;;;;3.16;94.11;94446.88;5083319;28;20039;-77
2021/12/02 12:26:46;;;;;;;;;;;;;;;2.98;95.74;94441.88;5091559;28;19995;-77
2021/12/02 12:29:20;;;;;;;;;;;;;;;3.03;97.93;94442.78;5091035;28;19934;-77
2021/12/02 12:32:09;;;;;;;;;;;;;;;3.19;96.72;94441.25;5084312;28;19925;-77
2021/12/02 12:37:30;;;;;;;;;;;;;;;3.18;96.35;94442.28;5094008;28;19924;-77
2021/12/02 12:40:04;;;;;;;;;;;;;;;3.35;96.70;94445.69;5084528;28;20388;-79
2021/12/02 12:42:31;;;;;;;;;;;;;;;3.16;95.49;94446.88;5080052;28;19939;-77
2021/12/02 12:45:00;;;;;;;;;;;;;;;3.00;96.00;94439.84;5082191;28;19924;-78
2021/12/02 12:47:42;;;;;;;;;;;;;;;2.81;96.02;94429.63;5086572;28;19924;-78
2021/12/02 12:50:20;;;;;;;;;;;;;;;3.01;97.76;94431.03;5088940;28;19942;-78
2021/12/02 12:52:45;;;;;;;;;;;;;;;3.03;95.97;94437.56;5086831;28;20571;-78
2021/12/02 12:55:13;;;;;;;;;;;;;;;3.14;95.69;94438.56;5090996;28;20410;-78
2021/12/02 12:58:06;;;;;;;;;;;;;;;2.92;94.67;94420.22;5082712;28;19924;-78
2021/12/02 13:00:37;;;;;;;;;;;;;;;2.87;94.80;94428.72;5082603;28;19924;-78
2021/12/02 13:03:15;;;;;;;;;;;;;;;3.10;96.36;94422.63;5083166;28;19925;-78
2021/12/02 13:05:43;;;;;;;;;;;;;;;2.97;95.80;94438.50;5080614;28;19924;-77
2021/12/02 13:08:16;;;;;;;;;;;;;;;3.01;96.34;94436.22;5081301;28;19928;-77
2021/12/02 13:10:47;;;;;;;;;;;;;;;3.15;93.46;94445.31;5082864;28;19928;-77
2021/12/02 13:13:20;;;;;;;;;;;;;;;3.07;93.26;94443.09;5090261;28;19925;-77
2021/12/02 13:15:45;;;;;;;;;;;;;;;3.11;94.97;94439.78;5088732;28;19925;-78
2021/12/02 13:18:30;;;;;;;;;;;;;;;3.05;93.46;94442.53;5081042;28;19924;-77
2021/12/02 13:20:56;;;;;;;;;;;;;;;3.04;94.66;94448.75;5080669;28;20442;-78